sensor_id;sensor_type;location;lat;lon;timestamp;P1;durP1;ratioP1;P2;durP2;ratioP2
38605;SDS011;24365;48.446;8.850;2023-10-19T00:03:50;21.50;;;14.85;;
38605;SDS011;24365;48.446;8.850;2023-10-19T00:08:54;18.92;;;13.88;;
38605;SDS011;24365;48.446;8.850;2023-10-19T00:13:55;15.83;;;11.73;;
38605;SDS011;24365;48.446;8.850;2023-10-19T00:18:58;16.65;;;12.27;;
38605;SDS011;24365;48.446;8.850;2023-10-19T00:24:00;17.10;;;13.18;;
38605;SDS011;24365;48.446;8.850;2023-10-19T00:29:05;16.85;;;12.05;;
38605;SDS011;24365;48.446;8.850;2023-10-19T00:34:27;17.45;;;12.35;;
38605;SDS011;24365;48.446;8.850;2023-10-19T00:39:29;14.70;;;11.38;;
38605;SDS011;24365;48.446;8.850;2023-10-19T00:44:40;16.55;;;12.02;;
38605;SDS011;24365;48.446;8.850;2023-10-19T00:49:50;15.20;;;10.88;;
38605;SDS011;24365;48.446;8.850;2023-10-19T00:54:51;16.40;;;11.27;;
38605;SDS011;24365;48.446;8.850;2023-10-19T00:59:55;14.43;;;11.18;;
38605;SDS011;24365;48.446;8.850;2023-10-19T01:05:11;20.85;;;12.75;;
38605;SDS011;24365;48.446;8.850;2023-10-19T01:10:21;19.88;;;13.85;;
38605;SDS011;24365;48.446;8.850;2023-10-19T01:15:25;16.98;;;12.07;;
38605;SDS011;24365;48.446;8.850;2023-10-19T01:20:32;15.05;;;11.52;;
38605;SDS011;24365;48.446;8.850;2023-10-19T01:25:46;14.70;;;11.48;;
38605;SDS011;24365;48.446;8.850;2023-10-19T01:30:55;12.75;;;9.68;;
38605;SDS011;24365;48.446;8.850;2023-10-19T01:35:56;15.98;;;12.20;;
38605;SDS011;24365;48.446;8.850;2023-10-19T01:41:12;14.70;;;10.57;;
38605;SDS011;24365;48.446;8.850;2023-10-19T01:51:26;13.98;;;10.55;;
38605;SDS011;24365;48.446;8.850;2023-10-19T01:56:28;15.43;;;11.48;;
38605;SDS011;24365;48.446;8.850;2023-10-19T02:01:30;15.00;;;10.95;;
38605;SDS011;24365;48.446;8.850;2023-10-19T02:06:33;14.18;;;10.07;;
38605;SDS011;24365;48.446;8.850;2023-10-19T02:11:39;10.55;;;8.50;;
38605;SDS011;24365;48.446;8.850;2023-10-19T02:16:43;15.13;;;10.15;;
38605;SDS011;24365;48.446;8.850;2023-10-19T02:21:48;13.77;;;8.77;;
38605;SDS011;24365;48.446;8.850;2023-10-19T02:26:50;18.05;;;10.32;;
38605;SDS011;24365;48.446;8.850;2023-10-19T02:31:55;14.30;;;10.75;;
38605;SDS011;24365;48.446;8.850;2023-10-19T02:36:56;11.35;;;8.43;;
38605;SDS011;24365;48.446;8.850;2023-10-19T02:41:59;12.05;;;9.38;;
38605;SDS011;24365;48.446;8.850;2023-10-19T02:47:03;11.00;;;7.72;;
38605;SDS011;24365;48.446;8.850;2023-10-19T02:52:09;12.23;;;8.43;;
38605;SDS011;24365;48.446;8.850;2023-10-19T02:57:13;12.68;;;7.78;;
38605;SDS011;24365;48.446;8.850;2023-10-19T03:02:15;9.10;;;7.75;;
38605;SDS011;24365;48.446;8.850;2023-10-19T03:07:18;9.90;;;7.32;;
38605;SDS011;24365;48.446;8.850;2023-10-19T03:12:19;9.50;;;7.43;;
38605;SDS011;24365;48.446;8.850;2023-10-19T03:17:21;9.02;;;6.65;;
38605;SDS011;24365;48.446;8.850;2023-10-19T03:22:25;42.15;;;8.32;;
38605;SDS011;24365;48.446;8.850;2023-10-19T03:27:28;9.48;;;5.90;;
38605;SDS011;24365;48.446;8.850;2023-10-19T03:32:29;7.93;;;5.82;;
38605;SDS011;24365;48.446;8.850;2023-10-19T03:37:32;8.68;;;5.65;;
38605;SDS011;24365;48.446;8.850;2023-10-19T03:42:36;7.85;;;5.43;;
38605;SDS011;24365;48.446;8.850;2023-10-19T03:47:47;7.13;;;5.38;;
38605;SDS011;24365;48.446;8.850;2023-10-19T03:52:50;5.40;;;4.63;;
38605;SDS011;24365;48.446;8.850;2023-10-19T03:57:52;12.00;;;6.93;;
38605;SDS011;24365;48.446;8.850;2023-10-19T04:02:55;48.30;;;6.68;;
38605;SDS011;24365;48.446;8.850;2023-10-19T04:07:56;9.25;;;6.07;;
38605;SDS011;24365;48.446;8.850;2023-10-19T04:13:02;9.63;;;7.10;;
38605;SDS011;24365;48.446;8.850;2023-10-19T04:18:03;6.38;;;5.40;;
38605;SDS011;24365;48.446;8.850;2023-10-19T04:23:11;50.35;;;7.95;;
38605;SDS011;24365;48.446;8.850;2023-10-19T04:28:14;14.02;;;5.65;;
38605;SDS011;24365;48.446;8.850;2023-10-19T04:33:16;6.35;;;5.50;;
38605;SDS011;24365;48.446;8.850;2023-10-19T04:38:19;22.42;;;6.60;;
38605;SDS011;24365;48.446;8.850;2023-10-19T04:43:20;36.80;;;7.10;;
38605;SDS011;24365;48.446;8.850;2023-10-19T04:48:21;31.05;;;5.75;;
38605;SDS011;24365;48.446;8.850;2023-10-19T04:53:22;10.07;;;5.20;;
38605;SDS011;24365;48.446;8.850;2023-10-19T04:58:23;10.60;;;5.70;;
38605;SDS011;24365;48.446;8.850;2023-10-19T05:03:25;14.10;;;6.80;;
38605;SDS011;24365;48.446;8.850;2023-10-19T05:08:28;6.47;;;5.57;;
38605;SDS011;24365;48.446;8.850;2023-10-19T05:13:31;5.68;;;5.18;;
38605;SDS011;24365;48.446;8.850;2023-10-19T05:18:34;5.78;;;5.18;;
38605;SDS011;24365;48.446;8.850;2023-10-19T05:23:36;5.83;;;4.63;;
38605;SDS011;24365;48.446;8.850;2023-10-19T05:28:38;5.45;;;4.88;;
38605;SDS011;24365;48.446;8.850;2023-10-19T05:33:38;5.07;;;4.57;;
38605;SDS011;24365;48.446;8.850;2023-10-19T05:38:40;5.40;;;4.53;;
38605;SDS011;24365;48.446;8.850;2023-10-19T05:43:41;5.60;;;4.97;;
38605;SDS011;24365;48.446;8.850;2023-10-19T05:48:42;5.63;;;4.13;;
38605;SDS011;24365;48.446;8.850;2023-10-19T05:53:44;6.10;;;4.90;;
38605;SDS011;24365;48.446;8.850;2023-10-19T05:58:45;5.03;;;4.45;;
38605;SDS011;24365;48.446;8.850;2023-10-19T06:03:49;5.63;;;4.88;;
38605;SDS011;24365;48.446;8.850;2023-10-19T06:08:51;7.10;;;5.47;;
38605;SDS011;24365;48.446;8.850;2023-10-19T06:13:53;5.70;;;5.10;;
38605;SDS011;24365;48.446;8.850;2023-10-19T06:18:54;6.43;;;4.90;;
38605;SDS011;24365;48.446;8.850;2023-10-19T06:23:55;7.93;;;5.10;;
38605;SDS011;24365;48.446;8.850;2023-10-19T06:28:57;11.35;;;5.97;;
38605;SDS011;24365;48.446;8.850;2023-10-19T06:34:02;9.02;;;6.50;;
38605;SDS011;24365;48.446;8.850;2023-10-19T06:39:03;8.27;;;5.60;;
38605;SDS011;24365;48.446;8.850;2023-10-19T06:44:06;14.10;;;8.25;;
38605;SDS011;24365;48.446;8.850;2023-10-19T06:54:09;16.85;;;8.52;;
38605;SDS011;24365;48.446;8.850;2023-10-19T06:59:10;14.00;;;8.02;;
38605;SDS011;24365;48.446;8.850;2023-10-19T07:04:11;12.63;;;7.25;;
38605;SDS011;24365;48.446;8.850;2023-10-19T07:14:15;14.00;;;7.97;;
38605;SDS011;24365;48.446;8.850;2023-10-19T07:19:16;11.47;;;8.10;;
38605;SDS011;24365;48.446;8.850;2023-10-19T07:24:18;16.45;;;9.43;;
38605;SDS011;24365;48.446;8.850;2023-10-19T07:29:20;15.75;;;9.43;;
38605;SDS011;24365;48.446;8.850;2023-10-19T07:39:26;15.13;;;9.20;;
38605;SDS011;24365;48.446;8.850;2023-10-19T07:44:29;15.63;;;10.23;;
38605;SDS011;24365;48.446;8.850;2023-10-19T07:49:30;15.23;;;9.43;;
38605;SDS011;24365;48.446;8.850;2023-10-19T07:54:31;15.37;;;9.73;;
38605;SDS011;24365;48.446;8.850;2023-10-19T07:59:35;18.25;;;10.70;;
38605;SDS011;24365;48.446;8.850;2023-10-19T08:04:36;15.87;;;10.37;;
38605;SDS011;24365;48.446;8.850;2023-10-19T08:09:37;19.83;;;12.53;;
38605;SDS011;24365;48.446;8.850;2023-10-19T08:14:38;19.70;;;13.30;;
38605;SDS011;24365;48.446;8.850;2023-10-19T08:19:39;22.73;;;14.05;;
38605;SDS011;24365;48.446;8.850;2023-10-19T08:29:46;22.23;;;12.90;;
38605;SDS011;24365;48.446;8.850;2023-10-19T08:34:47;45.87;;;26.27;;
38605;SDS011;24365;48.446;8.850;2023-10-19T08:39:48;53.40;;;34.00;;
38605;SDS011;24365;48.446;8.850;2023-10-19T08:44:50;58.85;;;31.40;;
38605;SDS011;24365;48.446;8.850;2023-10-19T08:49:54;72.88;;;42.83;;
38605;SDS011;24365;48.446;8.850;2023-10-19T08:54:55;27.13;;;16.88;;
38605;SDS011;24365;48.446;8.850;2023-10-19T08:59:56;51.30;;;32.73;;
38605;SDS011;24365;48.446;8.850;2023-10-19T09:04:59;30.83;;;23.70;;
38605;SDS011;24365;48.446;8.850;2023-10-19T09:10:06;30.85;;;20.92;;
38605;SDS011;24365;48.446;8.850;2023-10-19T09:15:22;36.47;;;23.83;;
38605;SDS011;24365;48.446;8.850;2023-10-19T09:20:24;35.60;;;24.50;;
38605;SDS011;24365;48.446;8.850;2023-10-19T09:25:28;82.32;;;41.97;;
38605;SDS011;24365;48.446;8.850;2023-10-19T09:35:34;22.65;;;15.88;;
38605;SDS011;24365;48.446;8.850;2023-10-19T09:40:37;17.17;;;11.07;;
38605;SDS011;24365;48.446;8.850;2023-10-19T09:45:41;15.45;;;9.45;;
38605;SDS011;24365;48.446;8.850;2023-10-19T09:50:53;18.08;;;11.55;;
38605;SDS011;24365;48.446;8.850;2023-10-19T09:55:56;18.85;;;12.50;;
38605;SDS011;24365;48.446;8.850;2023-10-19T10:00:58;22.65;;;14.35;;
38605;SDS011;24365;48.446;8.850;2023-10-19T10:06:03;16.27;;;9.55;;
38605;SDS011;24365;48.446;8.850;2023-10-19T10:16:26;14.30;;;11.55;;
38605;SDS011;24365;48.446;8.850;2023-10-19T10:21:29;18.20;;;12.90;;
38605;SDS011;24365;48.446;8.850;2023-10-19T10:26:31;14.80;;;9.65;;
38605;SDS011;24365;48.446;8.850;2023-10-19T10:31:58;14.32;;;9.65;;
38605;SDS011;24365;48.446;8.850;2023-10-19T10:42:03;15.60;;;9.60;;
38605;SDS011;24365;48.446;8.850;2023-10-19T10:47:07;16.35;;;9.68;;
38605;SDS011;24365;48.446;8.850;2023-10-19T10:52:09;12.27;;;8.95;;
38605;SDS011;24365;48.446;8.850;2023-10-19T10:57:10;16.63;;;9.77;;
38605;SDS011;24365;48.446;8.850;2023-10-19T11:02:18;16.92;;;11.05;;
38605;SDS011;24365;48.446;8.850;2023-10-19T11:07:20;13.35;;;10.40;;
38605;SDS011;24365;48.446;8.850;2023-10-19T11:12:21;17.48;;;11.02;;
38605;SDS011;24365;48.446;8.850;2023-10-19T11:17:22;16.55;;;10.88;;
38605;SDS011;24365;48.446;8.850;2023-10-19T11:22:33;16.98;;;10.23;;
38605;SDS011;24365;48.446;8.850;2023-10-19T11:27:47;17.48;;;9.65;;
38605;SDS011;24365;48.446;8.850;2023-10-19T11:32:49;15.25;;;9.18;;
38605;SDS011;24365;48.446;8.850;2023-10-19T11:37:54;13.48;;;10.60;;
38605;SDS011;24365;48.446;8.850;2023-10-19T11:43:02;17.25;;;11.40;;
38605;SDS011;24365;48.446;8.850;2023-10-19T11:48:04;23.92;;;11.60;;
38605;SDS011;24365;48.446;8.850;2023-10-19T11:53:06;13.75;;;10.32;;
38605;SDS011;24365;48.446;8.850;2023-10-19T11:58:10;13.48;;;7.97;;
38605;SDS011;24365;48.446;8.850;2023-10-19T12:03:14;11.57;;;7.68;;
38605;SDS011;24365;48.446;8.850;2023-10-19T12:08:16;8.40;;;5.97;;
38605;SDS011;24365;48.446;8.850;2023-10-19T12:13:17;10.35;;;6.63;;
38605;SDS011;24365;48.446;8.850;2023-10-19T12:18:19;9.63;;;5.50;;
38605;SDS011;24365;48.446;8.850;2023-10-19T12:23:20;12.13;;;7.13;;
38605;SDS011;24365;48.446;8.850;2023-10-19T12:28:23;5.53;;;4.47;;
38605;SDS011;24365;48.446;8.850;2023-10-19T12:33:27;7.40;;;4.60;;
38605;SDS011;24365;48.446;8.850;2023-10-19T12:38:28;7.32;;;4.60;;
38605;SDS011;24365;48.446;8.850;2023-10-19T12:43:29;7.50;;;4.07;;
38605;SDS011;24365;48.446;8.850;2023-10-19T12:48:31;7.70;;;5.47;;
38605;SDS011;24365;48.446;8.850;2023-10-19T12:53:33;8.35;;;4.78;;
38605;SDS011;24365;48.446;8.850;2023-10-19T12:58:37;8.10;;;3.95;;
38605;SDS011;24365;48.446;8.850;2023-10-19T13:03:38;8.93;;;4.13;;
38605;SDS011;24365;48.446;8.850;2023-10-19T13:08:42;9.95;;;4.10;;
38605;SDS011;24365;48.446;8.850;2023-10-19T13:13:44;9.45;;;4.70;;
38605;SDS011;24365;48.446;8.850;2023-10-19T13:18:45;5.60;;;3.60;;
38605;SDS011;24365;48.446;8.850;2023-10-19T13:23:46;4.80;;;3.55;;
38605;SDS011;24365;48.446;8.850;2023-10-19T13:28:48;6.00;;;4.65;;
38605;SDS011;24365;48.446;8.850;2023-10-19T13:33:53;4.50;;;3.65;;
38605;SDS011;24365;48.446;8.850;2023-10-19T13:38:56;11.00;;;6.03;;
38605;SDS011;24365;48.446;8.850;2023-10-19T13:43:57;9.05;;;6.03;;
38605;SDS011;24365;48.446;8.850;2023-10-19T13:48:58;10.85;;;7.35;;
38605;SDS011;24365;48.446;8.850;2023-10-19T13:54:00;11.90;;;8.57;;
38605;SDS011;24365;48.446;8.850;2023-10-19T13:59:01;10.75;;;7.55;;
38605;SDS011;24365;48.446;8.850;2023-10-19T14:04:02;12.75;;;9.25;;
38605;SDS011;24365;48.446;8.850;2023-10-19T14:09:05;11.80;;;7.50;;
38605;SDS011;24365;48.446;8.850;2023-10-19T14:14:07;10.50;;;8.50;;
38605;SDS011;24365;48.446;8.850;2023-10-19T14:19:08;12.13;;;8.70;;
38605;SDS011;24365;48.446;8.850;2023-10-19T14:24:09;12.57;;;8.60;;
38605;SDS011;24365;48.446;8.850;2023-10-19T14:29:10;14.90;;;10.05;;
38605;SDS011;24365;48.446;8.850;2023-10-19T14:34:13;13.68;;;9.20;;
38605;SDS011;24365;48.446;8.850;2023-10-19T14:39:13;11.95;;;8.23;;
38605;SDS011;24365;48.446;8.850;2023-10-19T14:44:17;13.77;;;8.77;;
38605;SDS011;24365;48.446;8.850;2023-10-19T14:49:18;15.50;;;9.70;;
38605;SDS011;24365;48.446;8.850;2023-10-19T14:54:19;15.02;;;10.18;;
38605;SDS011;24365;48.446;8.850;2023-10-19T14:59:21;15.75;;;10.05;;
38605;SDS011;24365;48.446;8.850;2023-10-19T15:04:23;18.27;;;12.35;;
38605;SDS011;24365;48.446;8.850;2023-10-19T15:09:25;15.27;;;11.07;;
38605;SDS011;24365;48.446;8.850;2023-10-19T15:14:26;14.05;;;10.02;;
38605;SDS011;24365;48.446;8.850;2023-10-19T15:24:28;10.23;;;9.07;;
38605;SDS011;24365;48.446;8.850;2023-10-19T15:29:29;12.38;;;8.70;;
38605;SDS011;24365;48.446;8.850;2023-10-19T15:34:30;10.02;;;7.78;;
38605;SDS011;24365;48.446;8.850;2023-10-19T15:39:35;11.82;;;7.90;;
38605;SDS011;24365;48.446;8.850;2023-10-19T15:44:40;11.63;;;8.60;;
38605;SDS011;24365;48.446;8.850;2023-10-19T15:49:45;11.90;;;8.30;;
38605;SDS011;24365;48.446;8.850;2023-10-19T15:54:58;12.55;;;7.97;;
38605;SDS011;24365;48.446;8.850;2023-10-19T16:00:00;10.55;;;6.10;;
38605;SDS011;24365;48.446;8.850;2023-10-19T16:05:01;5.40;;;3.97;;
38605;SDS011;24365;48.446;8.850;2023-10-19T16:15:07;6.30;;;3.25;;
38605;SDS011;24365;48.446;8.850;2023-10-19T16:20:10;3.97;;;2.30;;
38605;SDS011;24365;48.446;8.850;2023-10-19T16:25:14;4.65;;;1.88;;
38605;SDS011;24365;48.446;8.850;2023-10-19T16:30:16;2.70;;;1.80;;
38605;SDS011;24365;48.446;8.850;2023-10-19T16:35:17;4.53;;;1.67;;
38605;SDS011;24365;48.446;8.850;2023-10-19T16:40:18;2.20;;;1.80;;
38605;SDS011;24365;48.446;8.850;2023-10-19T16:45:20;34.28;;;4.68;;
38605;SDS011;24365;48.446;8.850;2023-10-19T16:50:23;7.53;;;4.82;;
38605;SDS011;24365;48.446;8.850;2023-10-19T16:55:25;20.27;;;5.10;;
38605;SDS011;24365;48.446;8.850;2023-10-19T17:00:27;2.88;;;2.58;;
38605;SDS011;24365;48.446;8.850;2023-10-19T17:05:32;3.90;;;3.03;;
38605;SDS011;24365;48.446;8.850;2023-10-19T17:10:33;3.88;;;2.00;;
38605;SDS011;24365;48.446;8.850;2023-10-19T17:15:34;4.43;;;2.30;;
38605;SDS011;24365;48.446;8.850;2023-10-19T17:20:35;6.30;;;3.10;;
38605;SDS011;24365;48.446;8.850;2023-10-19T17:30:37;9.20;;;3.50;;
38605;SDS011;24365;48.446;8.850;2023-10-19T17:35:40;5.53;;;3.90;;
38605;SDS011;24365;48.446;8.850;2023-10-19T17:40:41;24.13;;;5.30;;
38605;SDS011;24365;48.446;8.850;2023-10-19T17:45:45;17.98;;;6.95;;
38605;SDS011;24365;48.446;8.850;2023-10-19T17:50:46;10.68;;;6.05;;
38605;SDS011;24365;48.446;8.850;2023-10-19T17:55:50;13.70;;;10.02;;
38605;SDS011;24365;48.446;8.850;2023-10-19T18:00:53;13.20;;;7.95;;
38605;SDS011;24365;48.446;8.850;2023-10-19T18:05:54;16.55;;;10.07;;
38605;SDS011;24365;48.446;8.850;2023-10-19T18:10:55;27.65;;;17.15;;
38605;SDS011;24365;48.446;8.850;2023-10-19T18:15:56;21.30;;;15.43;;
38605;SDS011;24365;48.446;8.850;2023-10-19T18:20:57;33.58;;;20.23;;
38605;SDS011;24365;48.446;8.850;2023-10-19T18:25:58;47.35;;;26.85;;
38605;SDS011;24365;48.446;8.850;2023-10-19T18:31:01;21.70;;;12.20;;
38605;SDS011;24365;48.446;8.850;2023-10-19T18:36:03;10.68;;;7.75;;
38605;SDS011;24365;48.446;8.850;2023-10-19T18:41:23;12.65;;;7.10;;
38605;SDS011;24365;48.446;8.850;2023-10-19T18:46:26;19.35;;;11.85;;
38605;SDS011;24365;48.446;8.850;2023-10-19T18:51:29;26.40;;;16.77;;
38605;SDS011;24365;48.446;8.850;2023-10-19T18:56:33;19.98;;;9.18;;
38605;SDS011;24365;48.446;8.850;2023-10-19T19:01:34;34.35;;;8.00;;
38605;SDS011;24365;48.446;8.850;2023-10-19T19:06:35;30.60;;;9.00;;
38605;SDS011;24365;48.446;8.850;2023-10-19T19:11:37;33.53;;;7.65;;
38605;SDS011;24365;48.446;8.850;2023-10-19T19:16:43;12.13;;;7.10;;
38605;SDS011;24365;48.446;8.850;2023-10-19T19:21:47;10.52;;;7.72;;
38605;SDS011;24365;48.446;8.850;2023-10-19T19:32:05;12.50;;;8.15;;
38605;SDS011;24365;48.446;8.850;2023-10-19T19:37:07;11.25;;;7.57;;
38605;SDS011;24365;48.446;8.850;2023-10-19T19:42:08;10.75;;;7.82;;
38605;SDS011;24365;48.446;8.850;2023-10-19T19:47:10;14.07;;;10.25;;
38605;SDS011;24365;48.446;8.850;2023-10-19T19:52:13;10.52;;;7.88;;
38605;SDS011;24365;48.446;8.850;2023-10-19T19:57:15;13.65;;;6.88;;
38605;SDS011;24365;48.446;8.850;2023-10-19T20:02:20;7.68;;;6.47;;
38605;SDS011;24365;48.446;8.850;2023-10-19T20:07:21;8.75;;;7.28;;
38605;SDS011;24365;48.446;8.850;2023-10-19T20:12:22;88.28;;;10.07;;
38605;SDS011;24365;48.446;8.850;2023-10-19T20:17:23;56.58;;;9.93;;
38605;SDS011;24365;48.446;8.850;2023-10-19T20:22:24;35.85;;;9.70;;
38605;SDS011;24365;48.446;8.850;2023-10-19T20:27:25;24.13;;;11.30;;
38605;SDS011;24365;48.446;8.850;2023-10-19T20:32:27;11.75;;;7.78;;
38605;SDS011;24365;48.446;8.850;2023-10-19T20:37:28;10.88;;;7.88;;
38605;SDS011;24365;48.446;8.850;2023-10-19T20:42:30;12.60;;;8.88;;
38605;SDS011;24365;48.446;8.850;2023-10-19T20:47:32;29.75;;;10.77;;
38605;SDS011;24365;48.446;8.850;2023-10-19T20:52:33;39.97;;;9.85;;
38605;SDS011;24365;48.446;8.850;2023-10-19T20:57:34;11.35;;;7.90;;
38605;SDS011;24365;48.446;8.850;2023-10-19T21:07:37;13.52;;;8.57;;
38605;SDS011;24365;48.446;8.850;2023-10-19T21:12:41;29.08;;;8.13;;
38605;SDS011;24365;48.446;8.850;2023-10-19T21:17:47;10.13;;;7.47;;
38605;SDS011;24365;48.446;8.850;2023-10-19T21:22:50;8.43;;;6.75;;
38605;SDS011;24365;48.446;8.850;2023-10-19T21:27:51;6.85;;;5.78;;
38605;SDS011;24365;48.446;8.850;2023-10-19T21:32:52;5.68;;;4.97;;
38605;SDS011;24365;48.446;8.850;2023-10-19T21:37:54;6.15;;;4.93;;
38605;SDS011;24365;48.446;8.850;2023-10-19T21:42:56;7.68;;;5.95;;
38605;SDS011;24365;48.446;8.850;2023-10-19T21:47:57;9.30;;;6.55;;
38605;SDS011;24365;48.446;8.850;2023-10-19T21:52:58;6.95;;;5.45;;
38605;SDS011;24365;48.446;8.850;2023-10-19T21:57:59;6.43;;;5.25;;
38605;SDS011;24365;48.446;8.850;2023-10-19T22:03:01;5.93;;;5.32;;
38605;SDS011;24365;48.446;8.850;2023-10-19T22:08:03;8.00;;;5.22;;
38605;SDS011;24365;48.446;8.850;2023-10-19T22:13:05;15.05;;;5.30;;
38605;SDS011;24365;48.446;8.850;2023-10-19T22:23:10;7.13;;;5.60;;
38605;SDS011;24365;48.446;8.850;2023-10-19T22:28:14;7.13;;;5.57;;
38605;SDS011;24365;48.446;8.850;2023-10-19T22:33:18;7.30;;;6.38;;
38605;SDS011;24365;48.446;8.850;2023-10-19T22:38:19;6.82;;;5.82;;
38605;SDS011;24365;48.446;8.850;2023-10-19T22:43:20;6.75;;;5.32;;
38605;SDS011;24365;48.446;8.850;2023-10-19T22:48:22;7.63;;;5.47;;
38605;SDS011;24365;48.446;8.850;2023-10-19T22:53:24;5.38;;;4.60;;
38605;SDS011;24365;48.446;8.850;2023-10-19T22:58:27;5.45;;;4.88;;
38605;SDS011;24365;48.446;8.850;2023-10-19T23:03:29;6.75;;;5.32;;
38605;SDS011;24365;48.446;8.850;2023-10-19T23:08:31;6.28;;;5.32;;
38605;SDS011;24365;48.446;8.850;2023-10-19T23:13:39;5.70;;;3.97;;
38605;SDS011;24365;48.446;8.850;2023-10-19T23:18:45;3.85;;;3.53;;
38605;SDS011;24365;48.446;8.850;2023-10-19T23:23:47;6.55;;;4.90;;
38605;SDS011;24365;48.446;8.850;2023-10-19T23:28:48;11.15;;;6.05;;
38605;SDS011;24365;48.446;8.850;2023-10-19T23:33:50;7.97;;;5.00;;
38605;SDS011;24365;48.446;8.850;2023-10-19T23:38:53;8.18;;;4.55;;
38605;SDS011;24365;48.446;8.850;2023-10-19T23:43:54;7.45;;;3.92;;
38605;SDS011;24365;48.446;8.850;2023-10-19T23:48:55;7.57;;;4.97;;
38605;SDS011;24365;48.446;8.850;2023-10-19T23:53:56;6.47;;;5.47;;
38605;SDS011;24365;48.446;8.850;2023-10-19T23:58:58;7.50;;;5.18;;
